createdAt,value
2019-04-06T00:00:39.843Z,7.11
2019-04-06T00:01:39.843Z,7.10
2019-04-06T00:02:39.827Z,7.04
2019-04-06T00:03:39.853Z,6.99
2019-04-06T00:04:39.806Z,7.04
2019-04-06T00:05:39.786Z,7.04
2019-04-06T00:06:39.797Z,7.01
2019-04-06T00:07:39.759Z,7.00
2019-04-06T00:08:39.838Z,6.96
2019-04-06T00:09:39.747Z,6.99
2019-04-06T00:10:39.735Z,7.08
2019-04-06T00:11:39.757Z,7.04
2019-04-06T00:12:39.719Z,6.97
2019-04-06T00:13:39.696Z,6.93
2019-04-06T00:14:39.688Z,7.01
2019-04-06T00:15:39.680Z,6.85
2019-04-06T00:16:39.735Z,6.81
2019-04-06T00:17:39.686Z,6.88
2019-04-06T00:18:39.644Z,6.85
2019-04-06T00:19:39.638Z,6.86
2019-04-06T00:20:39.619Z,6.78
2019-04-06T00:21:39.667Z,6.74
2019-04-06T00:22:39.617Z,6.74
2019-04-06T00:23:39.582Z,6.79
2019-04-06T00:24:39.588Z,6.78
2019-04-06T00:25:44.786Z,6.61
2019-04-06T00:26:40.559Z,6.81
2019-04-06T00:27:39.560Z,6.65
2019-04-06T00:28:39.585Z,6.67
2019-04-06T00:29:39.516Z,6.64
2019-04-06T00:30:39.508Z,6.61
2019-04-06T00:31:39.495Z,6.63
2019-04-06T00:32:39.500Z,6.65
2019-04-06T00:33:39.478Z,6.61
2019-04-06T00:34:39.470Z,6.56
2019-04-06T00:35:39.460Z,6.61
2019-04-06T00:36:39.455Z,6.67
2019-04-06T00:37:39.450Z,6.61
2019-04-06T00:38:39.460Z,6.56
2019-04-06T00:39:39.410Z,6.61
2019-04-06T00:40:39.404Z,6.67
2019-04-06T00:41:39.392Z,6.61
2019-04-06T00:42:39.395Z,6.63
2019-04-06T00:43:39.366Z,6.63
2019-04-06T00:44:39.375Z,6.68
2019-04-06T00:45:39.350Z,6.64
2019-04-06T00:46:39.327Z,6.53
2019-04-06T00:47:39.332Z,6.63
2019-04-06T00:48:39.345Z,6.63
2019-04-06T00:49:39.304Z,6.61
2019-04-06T00:50:39.288Z,6.61
2019-04-06T00:51:39.278Z,6.60
2019-04-06T00:52:39.299Z,6.60
2019-04-06T00:53:39.254Z,6.70
2019-04-06T00:54:39.257Z,6.64
2019-04-06T00:55:39.237Z,6.65
2019-04-06T00:56:39.218Z,6.64
2019-04-06T00:57:39.274Z,6.65
2019-04-06T00:58:39.204Z,6.63
2019-04-06T00:59:39.190Z,6.64
2019-04-06T01:00:39.291Z,6.60
2019-04-06T01:01:39.164Z,6.52
2019-04-06T01:02:39.193Z,6.65
2019-04-06T01:03:39.143Z,6.64
2019-04-06T01:04:39.132Z,6.73
2019-04-06T01:05:39.116Z,6.70
2019-04-06T01:06:39.113Z,6.73
2019-04-06T01:07:39.136Z,6.79
2019-04-06T01:08:39.207Z,6.85
2019-04-06T01:09:39.073Z,6.83
2019-04-06T01:10:39.069Z,6.85
2019-04-06T01:11:39.051Z,6.92
2019-04-06T01:12:39.040Z,6.97
2019-04-06T01:13:39.047Z,6.97
2019-04-06T01:14:39.022Z,6.96
2019-04-06T01:15:39.014Z,7.03
2019-04-06T01:16:38.997Z,7.03
2019-04-06T01:17:39.001Z,7.07
2019-04-06T01:18:38.991Z,7.15
2019-04-06T01:19:38.963Z,7.06
2019-04-06T01:20:38.955Z,7.15
2019-04-06T01:21:38.947Z,7.13
2019-04-06T01:22:38.935Z,7.18
2019-04-06T01:23:38.993Z,7.19
2019-04-06T01:24:38.913Z,7.21
2019-04-06T01:25:38.904Z,7.16
2019-04-06T01:26:38.889Z,7.24
2019-04-06T01:27:38.879Z,7.18
2019-04-06T01:28:38.887Z,7.22
2019-04-06T01:29:38.862Z,7.18
2019-04-06T01:30:38.841Z,7.28
2019-04-06T01:31:38.869Z,7.31
2019-04-06T01:32:38.827Z,7.43
2019-04-06T01:33:38.829Z,7.40
2019-04-06T01:34:38.807Z,7.52
2019-04-06T01:35:38.803Z,7.49
2019-04-06T01:36:38.784Z,7.52
2019-04-06T01:37:38.771Z,7.46
2019-04-06T01:38:38.775Z,7.49
2019-04-06T01:39:38.743Z,7.54
2019-04-06T01:40:38.738Z,7.57
2019-04-06T01:41:38.759Z,7.68
2019-04-06T01:42:38.716Z,7.64
2019-04-06T01:43:38.719Z,7.64
2019-04-06T01:44:38.766Z,7.61
2019-04-06T01:45:38.689Z,7.61
2019-04-06T01:46:38.665Z,7.52
2019-04-06T01:47:38.672Z,7.52
2019-04-06T01:48:38.750Z,7.49
2019-04-06T01:49:38.634Z,7.49
2019-04-06T01:50:38.668Z,7.39
2019-04-06T01:51:38.610Z,7.54
2019-04-06T01:52:38.713Z,7.49
2019-04-06T01:53:38.618Z,7.54
2019-04-06T01:54:38.588Z,7.49
2019-04-06T01:55:38.580Z,7.44
2019-04-06T01:56:38.570Z,7.40
2019-04-06T01:57:38.550Z,7.33
2019-04-06T01:58:38.560Z,7.40
2019-04-06T01:59:38.527Z,7.29
2019-04-06T02:00:38.604Z,7.40
2019-04-06T02:01:38.511Z,7.31
2019-04-06T02:02:38.498Z,7.31
2019-04-06T02:03:38.486Z,7.37
2019-04-06T02:04:38.486Z,7.43
2019-04-06T02:05:38.469Z,7.37
2019-04-06T02:06:38.452Z,7.28
2019-04-06T02:07:38.498Z,7.31
2019-04-06T02:08:38.436Z,7.34
2019-04-06T02:09:38.438Z,7.28
2019-04-06T02:10:38.428Z,7.31
2019-04-06T02:11:38.407Z,7.24
2019-04-06T02:12:38.389Z,7.28
2019-04-06T02:13:38.385Z,7.18
2019-04-06T02:14:38.395Z,7.22
2019-04-06T02:15:38.364Z,7.22
2019-04-06T02:16:38.340Z,7.16
2019-04-06T02:17:38.331Z,7.10
2019-04-06T02:18:38.372Z,7.22
2019-04-06T02:19:38.324Z,7.19
2019-04-06T02:20:38.304Z,7.21
2019-04-06T02:21:38.292Z,7.21
2019-04-06T02:22:38.286Z,7.19
2019-04-06T02:23:38.310Z,7.19
2019-04-06T02:24:38.277Z,7.18
2019-04-06T02:25:39.173Z,7.16
2019-04-06T02:26:38.439Z,7.04
2019-04-06T02:27:38.231Z,7.04
2019-04-06T02:28:38.211Z,7.01
2019-04-06T02:29:38.222Z,7.04
2019-04-06T02:30:38.201Z,7.06
2019-04-06T02:31:38.200Z,7.04
2019-04-06T02:32:38.228Z,7.03
2019-04-06T02:33:38.271Z,7.19
2019-04-06T02:34:38.218Z,7.15
2019-04-06T02:35:38.154Z,7.16
2019-04-06T02:36:38.131Z,7.19
2019-04-06T02:37:38.126Z,7.19
2019-04-06T02:38:38.147Z,7.16
2019-04-06T02:39:38.118Z,7.19
2019-04-06T02:40:38.089Z,7.13
2019-04-06T02:41:38.081Z,7.16
2019-04-06T02:42:38.067Z,7.19
2019-04-06T02:43:38.359Z,7.18
2019-04-06T02:44:38.086Z,7.26
2019-04-06T02:45:38.120Z,7.15
2019-04-06T02:46:38.022Z,7.25
2019-04-06T02:47:38.012Z,7.22
2019-04-06T02:48:38.005Z,7.24
2019-04-06T02:49:38.014Z,7.37
2019-04-06T02:50:37.983Z,7.43
2019-04-06T02:51:37.969Z,7.64
2019-04-06T02:52:38.103Z,7.78
2019-04-06T02:53:37.950Z,7.68
2019-04-06T02:54:38.010Z,7.76
2019-04-06T02:55:37.932Z,7.94
2019-04-06T02:56:45.931Z,7.87
2019-04-06T02:57:38.925Z,7.88
2019-04-06T02:58:37.968Z,7.87
2019-04-06T02:59:37.976Z,7.96
2019-04-06T03:00:37.890Z,7.94
2019-04-06T03:01:37.869Z,7.99
2019-04-06T03:02:37.854Z,7.91
2019-04-06T03:03:37.836Z,7.88
2019-04-06T03:04:37.878Z,7.91
2019-04-06T03:05:37.834Z,7.76
2019-04-06T03:06:37.935Z,7.73
2019-04-06T03:07:37.796Z,7.92
2019-04-06T03:08:37.796Z,7.76
2019-04-06T03:09:37.773Z,7.81
2019-04-06T03:10:37.836Z,7.81
2019-04-06T03:11:37.753Z,7.94
2019-04-06T03:12:37.740Z,7.73
2019-04-06T03:13:37.775Z,7.88
2019-04-06T03:14:37.722Z,7.73
2019-04-06T03:15:37.725Z,7.88
2019-04-06T03:16:37.694Z,7.94
2019-04-06T03:17:37.684Z,7.95
2019-04-06T03:18:37.974Z,7.91
2019-04-06T03:19:37.661Z,7.91
2019-04-06T03:20:37.663Z,7.87
2019-04-06T03:21:37.638Z,7.91
2019-04-06T03:22:37.631Z,7.88
2019-04-06T03:23:49.584Z,7.91
2019-04-06T03:24:38.603Z,7.88
2019-04-06T03:25:37.907Z,7.87
2019-04-06T03:26:37.590Z,8.01
2019-04-06T03:27:37.588Z,8.04
2019-04-06T03:28:37.567Z,7.99
2019-04-06T03:29:37.610Z,7.88
2019-04-06T03:30:37.663Z,8.01
2019-04-06T03:31:37.538Z,7.95
2019-04-06T03:32:37.524Z,8.02
2019-04-06T03:33:37.651Z,7.96
2019-04-06T03:34:37.502Z,7.96
2019-04-06T03:35:37.808Z,8.04
2019-04-06T03:36:37.517Z,8.12
2019-04-06T03:37:37.473Z,8.21
2019-04-06T03:38:37.473Z,8.24
2019-04-06T03:39:37.449Z,8.37
2019-04-06T03:40:37.576Z,8.55
2019-04-06T03:41:37.428Z,8.75
2019-04-06T03:42:37.411Z,8.72
2019-04-06T03:43:37.593Z,8.77
2019-04-06T03:44:37.438Z,8.75
2019-04-06T03:45:37.379Z,8.68
2019-04-06T03:46:37.384Z,8.63
2019-04-06T03:47:37.372Z,8.70
2019-04-06T03:48:37.342Z,8.70
2019-04-06T03:49:37.334Z,8.75
2019-04-06T03:50:37.374Z,8.77
2019-04-06T03:51:37.469Z,8.78
2019-04-06T03:52:37.302Z,8.72
2019-04-06T03:53:37.302Z,8.70
2019-04-06T03:54:37.530Z,8.75
2019-04-06T03:55:37.327Z,8.71
2019-04-06T03:56:37.435Z,8.77
2019-04-06T03:57:37.376Z,8.78
2019-04-06T03:58:37.235Z,8.74
2019-04-06T03:59:37.310Z,8.71
2019-04-06T04:00:37.276Z,8.72
2019-04-06T04:01:37.217Z,8.63
2019-04-06T04:02:37.361Z,8.70
2019-04-06T04:03:37.187Z,8.62
2019-04-06T04:04:37.174Z,8.68
2019-04-06T04:05:37.294Z,8.72
2019-04-06T04:06:37.160Z,8.80
2019-04-06T04:07:37.187Z,8.85
2019-04-06T04:08:37.124Z,8.83
2019-04-06T04:09:37.137Z,8.90
2019-04-06T04:10:37.114Z,8.92
2019-04-06T04:11:37.115Z,8.90
2019-04-06T04:12:37.103Z,8.90
2019-04-06T04:13:37.073Z,8.89
2019-04-06T04:14:37.239Z,8.86
2019-04-06T04:15:37.055Z,8.78
2019-04-06T04:16:37.060Z,8.85
2019-04-06T04:17:37.267Z,8.85
2019-04-06T04:18:37.020Z,8.77
2019-04-06T04:19:37.006Z,8.75
2019-04-06T04:20:36.995Z,8.70
2019-04-06T04:21:37.010Z,8.77
2019-04-06T04:22:37.029Z,8.72
2019-04-06T04:23:36.966Z,8.77
2019-04-06T04:24:37.240Z,8.71
2019-04-06T04:25:36.962Z,8.70
2019-04-06T04:26:36.998Z,8.56
2019-04-06T04:27:36.917Z,8.60
2019-04-06T04:28:36.927Z,8.60
2019-04-06T04:29:36.904Z,8.60
2019-04-06T04:30:36.882Z,8.62
2019-04-06T04:31:36.894Z,8.53
2019-04-06T04:32:36.910Z,8.60
2019-04-06T04:33:36.865Z,8.59
2019-04-06T04:34:36.847Z,8.62
2019-04-06T04:35:36.842Z,8.78
2019-04-06T04:36:36.831Z,8.77
2019-04-06T04:37:36.809Z,8.83
2019-04-06T04:38:37.003Z,8.83
2019-04-06T04:39:36.985Z,8.80
2019-04-06T04:40:36.780Z,8.88
2019-04-06T04:41:39.539Z,8.89
2019-04-06T04:42:36.861Z,8.89
2019-04-06T04:43:36.748Z,8.83
2019-04-06T04:44:36.736Z,8.88
2019-04-06T04:45:36.729Z,8.89
2019-04-06T04:46:36.754Z,8.89
2019-04-06T04:47:36.702Z,8.93
2019-04-06T04:48:36.698Z,8.93
2019-04-06T04:49:36.682Z,8.92
2019-04-06T04:50:36.730Z,8.88
2019-04-06T04:51:36.660Z,8.88
2019-04-06T04:52:36.673Z,8.81
2019-04-06T04:53:36.638Z,8.89
2019-04-06T04:54:36.630Z,8.95
2019-04-06T04:55:36.648Z,8.96
2019-04-06T04:56:36.623Z,9.09
2019-04-06T04:57:40.951Z,9.12
2019-04-06T04:58:36.583Z,9.04
2019-04-06T04:59:36.576Z,9.09
2019-04-06T05:00:36.562Z,9.09
2019-04-06T05:01:36.551Z,9.24
2019-04-06T05:02:36.555Z,9.33
2019-04-06T05:03:36.535Z,9.33
2019-04-06T05:04:36.540Z,9.37
2019-04-06T05:05:36.509Z,9.30
2019-04-06T05:06:36.500Z,9.41
2019-04-06T05:07:36.500Z,9.41
2019-04-06T05:08:36.480Z,9.48
2019-04-06T05:09:36.461Z,9.44
2019-04-06T05:10:36.452Z,9.42
2019-04-06T05:11:36.471Z,9.50
2019-04-06T05:12:36.454Z,9.48
2019-04-06T05:13:36.430Z,9.55
2019-04-06T05:14:36.407Z,9.62
2019-04-06T05:15:36.403Z,9.57
2019-04-06T05:16:36.412Z,9.66
2019-04-06T05:17:36.402Z,9.80
2019-04-06T05:18:36.365Z,9.73
2019-04-06T05:19:36.357Z,9.72
2019-04-06T05:20:36.404Z,9.87
2019-04-06T05:21:36.331Z,10.02
2019-04-06T05:22:36.337Z,10.01
2019-04-06T05:23:36.492Z,10.01
2019-04-06T05:24:36.309Z,10.14
2019-04-06T05:25:36.327Z,10.10
2019-04-06T05:26:37.953Z,10.24
2019-04-06T05:27:36.291Z,10.24
2019-04-06T05:28:36.259Z,10.27
2019-04-06T05:29:36.245Z,10.36
2019-04-06T05:30:36.263Z,10.49
2019-04-06T05:31:36.227Z,10.58
2019-04-06T05:32:36.245Z,10.62
2019-04-06T05:33:36.271Z,10.67
2019-04-06T05:34:36.196Z,10.85
2019-04-06T05:35:36.191Z,10.86
2019-04-06T05:36:36.177Z,10.95
2019-04-06T05:37:36.160Z,10.97
2019-04-06T05:38:36.364Z,11.03
2019-04-06T05:39:36.138Z,11.13
2019-04-06T05:40:36.166Z,11.27
2019-04-06T05:41:36.232Z,11.36
2019-04-06T05:42:36.109Z,11.48
2019-04-06T05:43:36.198Z,11.52
2019-04-06T05:44:36.083Z,11.58
2019-04-06T05:45:36.071Z,11.66
2019-04-06T05:46:36.059Z,11.82
2019-04-06T05:47:36.081Z,11.82
2019-04-06T05:48:37.002Z,11.89
2019-04-06T05:49:36.025Z,11.84
2019-04-06T05:50:36.028Z,12.04
2019-04-06T05:51:36.066Z,12.11
2019-04-06T05:52:35.997Z,12.25
2019-04-06T05:53:36.041Z,12.28
2019-04-06T05:54:35.985Z,12.35
2019-04-06T05:55:35.961Z,12.35
2019-04-06T05:56:36.183Z,12.46
2019-04-06T05:57:37.261Z,12.48
2019-04-06T05:58:36.069Z,12.55
2019-04-06T05:59:36.085Z,12.55
2019-04-06T06:00:35.948Z,12.65
2019-04-06T06:01:35.906Z,12.69
2019-04-06T06:02:40.381Z,12.76
2019-04-06T06:03:40.144Z,12.81
2019-04-06T06:04:35.863Z,12.79
2019-04-06T06:05:35.857Z,12.96
2019-04-06T06:06:35.951Z,12.98
2019-04-06T06:07:35.834Z,12.99
2019-04-06T06:08:35.843Z,13.08
2019-04-06T06:09:35.808Z,13.05
2019-04-06T06:10:38.219Z,13.04
2019-04-06T06:11:35.798Z,13.05
2019-04-06T06:12:35.819Z,13.13
2019-04-06T06:13:35.964Z,13.27
2019-04-06T06:14:35.754Z,13.11
2019-04-06T06:15:35.748Z,13.20
2019-04-06T06:16:35.871Z,13.20
2019-04-06T06:17:35.718Z,13.26
2019-04-06T06:18:35.739Z,13.30
2019-04-06T06:19:35.727Z,13.35
2019-04-06T06:20:35.688Z,13.42
2019-04-06T06:21:35.678Z,13.51
2019-04-06T06:22:35.675Z,13.53
2019-04-06T06:23:35.656Z,13.57
2019-04-06T06:24:35.662Z,13.61
2019-04-06T06:25:35.639Z,13.72
2019-04-06T06:26:35.780Z,13.67
2019-04-06T06:27:35.618Z,13.63
2019-04-06T06:28:35.606Z,13.73
2019-04-06T06:29:35.612Z,13.90
2019-04-06T06:30:35.578Z,14.15
2019-04-06T06:31:35.568Z,14.64
2019-04-06T06:32:35.558Z,15.20
2019-04-06T06:33:35.616Z,15.68
2019-04-06T06:34:35.563Z,16.21
2019-04-06T06:35:35.547Z,16.59
2019-04-06T06:36:35.514Z,16.88
2019-04-06T06:37:35.525Z,17.19
2019-04-06T06:38:35.538Z,17.57
2019-04-06T06:39:35.500Z,17.91
2019-04-06T06:40:35.475Z,18.39
2019-04-06T06:41:35.462Z,18.52
2019-04-06T06:42:35.451Z,18.71
2019-04-06T06:43:35.621Z,18.75
2019-04-06T06:44:35.564Z,19.22
2019-04-06T06:45:35.423Z,19.53
2019-04-06T06:46:35.556Z,19.86
2019-04-06T06:47:35.415Z,20.18
2019-04-06T06:48:35.380Z,20.39
2019-04-06T06:49:35.539Z,20.37
2019-04-06T06:50:35.445Z,20.49
2019-04-06T06:51:35.352Z,20.71
2019-04-06T06:52:35.367Z,20.65
2019-04-06T06:53:35.346Z,20.44
2019-04-06T06:54:35.376Z,20.52
2019-04-06T06:55:35.324Z,20.86
2019-04-06T06:56:35.299Z,20.77
2019-04-06T06:57:35.291Z,21.03
2019-04-06T06:58:35.321Z,21.22
2019-04-06T06:59:35.283Z,20.82
2019-04-06T07:00:35.277Z,21.01
2019-04-06T07:01:35.324Z,21.37
2019-04-06T07:02:35.328Z,21.58
2019-04-06T07:03:35.229Z,21.93
2019-04-06T07:04:35.241Z,22.03
2019-04-06T07:05:35.205Z,21.81
2019-04-06T07:06:35.185Z,21.97
2019-04-06T07:07:35.226Z,22.13
2019-04-06T07:08:35.178Z,22.21
2019-04-06T07:09:35.456Z,22.33
2019-04-06T07:10:35.149Z,22.13
2019-04-06T07:11:35.152Z,22.15
2019-04-06T07:12:35.122Z,22.38
2019-04-06T07:13:35.125Z,22.55
2019-04-06T07:14:35.133Z,22.99
2019-04-06T07:15:35.103Z,23.08
2019-04-06T07:16:35.115Z,23.18
2019-04-06T07:17:35.076Z,23.42
2019-04-06T07:18:35.294Z,23.46
2019-04-06T07:19:35.066Z,23.60
2019-04-06T07:20:35.068Z,23.74
2019-04-06T07:21:35.027Z,23.81
2019-04-06T07:22:35.017Z,23.85
2019-04-06T07:23:35.094Z,23.70
2019-04-06T07:24:34.994Z,23.56
2019-04-06T07:25:34.999Z,23.63
2019-04-06T07:26:35.006Z,23.86
2019-04-06T07:27:34.968Z,23.78
2019-04-06T07:28:38.122Z,23.85
2019-04-06T07:29:34.959Z,24.08
2019-04-06T07:30:34.958Z,24.16
2019-04-06T07:31:34.918Z,24.38
2019-04-06T07:32:34.939Z,24.22
2019-04-06T07:33:34.909Z,24.31
2019-04-06T07:34:34.983Z,24.56
2019-04-06T07:35:34.942Z,24.93
2019-04-06T07:36:34.872Z,24.93
2019-04-06T07:37:34.861Z,25.08
2019-04-06T07:38:35.042Z,24.97
2019-04-06T07:39:34.850Z,24.90
2019-04-06T07:40:34.884Z,25.19
2019-04-06T07:41:34.985Z,25.43
2019-04-06T07:42:34.818Z,25.52
2019-04-06T07:43:34.792Z,25.78
2019-04-06T07:44:34.795Z,25.81
2019-04-06T07:45:34.802Z,25.90
2019-04-06T07:46:34.987Z,26.07
2019-04-06T07:47:34.754Z,25.73
2019-04-06T07:48:34.741Z,25.85
2019-04-06T07:49:34.740Z,25.71
2019-04-06T07:50:34.972Z,25.71
2019-04-06T07:51:34.705Z,25.90
2019-04-06T07:52:34.688Z,25.75
2019-04-06T07:53:34.875Z,25.96
2019-04-06T07:54:34.674Z,26.03
2019-04-06T07:55:34.678Z,25.82
2019-04-06T07:56:34.648Z,26.01
2019-04-06T07:57:34.637Z,26.10
2019-04-06T07:58:34.837Z,26.39
2019-04-06T07:59:34.632Z,26.53
2019-04-06T08:00:35.001Z,26.65
2019-04-06T08:01:34.629Z,26.49
2019-04-06T08:02:34.584Z,26.41
2019-04-06T08:03:34.620Z,26.52
2019-04-06T08:04:34.732Z,26.52
2019-04-06T08:05:34.593Z,26.43
2019-04-06T08:06:34.547Z,25.96
2019-04-06T08:07:34.529Z,25.46
2019-04-06T08:08:34.527Z,25.43
2019-04-06T08:09:34.514Z,25.61
2019-04-06T08:10:34.513Z,25.95
2019-04-06T08:11:34.526Z,25.68
2019-04-06T08:12:34.488Z,25.55
2019-04-06T08:13:34.469Z,25.06
2019-04-06T08:14:34.713Z,25.06
2019-04-06T08:15:34.467Z,25.18
2019-04-06T08:16:34.731Z,25.00
2019-04-06T08:17:34.421Z,24.79
2019-04-06T08:18:34.669Z,24.94
2019-04-06T08:19:34.399Z,25.21
2019-04-06T08:20:34.461Z,25.09
2019-04-06T08:21:34.377Z,25.04
2019-04-06T08:22:34.379Z,25.19
2019-04-06T08:23:34.372Z,25.38
2019-04-06T08:24:34.349Z,25.48
2019-04-06T08:25:34.341Z,24.91
2019-04-06T08:26:34.349Z,25.12
2019-04-06T08:27:34.530Z,25.28
2019-04-06T08:28:34.331Z,24.97
2019-04-06T08:29:34.298Z,25.21
2019-04-06T08:30:44.996Z,25.30
2019-04-06T08:31:35.529Z,25.53
2019-04-06T08:32:34.266Z,25.53
2019-04-06T08:33:34.263Z,25.70
2019-04-06T08:34:34.289Z,25.85
2019-04-06T08:35:34.233Z,25.70
2019-04-06T08:36:34.250Z,25.37
2019-04-06T08:37:34.285Z,25.11
2019-04-06T08:38:34.197Z,24.75
2019-04-06T08:39:34.379Z,24.47
2019-04-06T08:40:34.231Z,24.01
2019-04-06T08:41:34.174Z,23.79
2019-04-06T08:42:34.192Z,23.85
2019-04-06T08:43:34.146Z,23.84
2019-04-06T08:44:34.137Z,24.06
2019-04-06T08:45:34.154Z,24.18
2019-04-06T08:46:34.132Z,24.36
2019-04-06T08:47:34.105Z,24.43
2019-04-06T08:48:34.102Z,24.11
2019-04-06T08:49:34.082Z,24.11
2019-04-06T08:50:34.066Z,24.26
2019-04-06T08:51:34.070Z,24.15
2019-04-06T08:52:34.051Z,24.10
2019-04-06T08:53:34.289Z,23.91
2019-04-06T08:54:34.065Z,23.97
2019-04-06T08:55:34.018Z,24.08
2019-04-06T08:56:34.251Z,24.33
2019-04-06T08:57:34.010Z,24.44
2019-04-06T08:58:33.982Z,24.53
2019-04-06T08:59:33.982Z,24.48
2019-04-06T09:00:33.962Z,24.55
2019-04-06T09:01:33.966Z,24.33
2019-04-06T09:02:34.023Z,24.10
2019-04-06T09:03:33.949Z,23.74
2019-04-06T09:04:34.138Z,23.46
2019-04-06T09:05:33.904Z,23.29
2019-04-06T09:06:33.920Z,23.46
2019-04-06T09:07:33.936Z,23.74
2019-04-06T09:08:33.884Z,23.98
2019-04-06T09:09:33.877Z,24.41
2019-04-06T09:10:33.978Z,24.70
2019-04-06T09:11:33.890Z,24.86
2019-04-06T09:12:33.832Z,25.14
2019-04-06T09:13:33.942Z,25.16
2019-04-06T09:14:33.842Z,25.27
2019-04-06T09:15:33.796Z,25.45
2019-04-06T09:16:33.806Z,25.67
2019-04-06T09:17:33.808Z,25.74
2019-04-06T09:18:33.851Z,26.04
2019-04-06T09:19:33.752Z,26.31
2019-04-06T09:20:33.881Z,26.53
2019-04-06T09:21:33.738Z,26.56
2019-04-06T09:22:33.754Z,26.57
2019-04-06T09:23:33.722Z,26.83
2019-04-06T09:24:33.707Z,26.78
2019-04-06T09:25:33.695Z,26.83
2019-04-06T09:26:33.695Z,26.63
2019-04-06T09:27:33.696Z,26.24
2019-04-06T09:28:33.662Z,25.83
2019-04-06T09:29:33.667Z,25.46
2019-04-06T09:30:33.639Z,25.16
2019-04-06T09:31:33.633Z,25.33
2019-04-06T09:32:33.635Z,25.67
2019-04-06T09:33:33.623Z,26.05
2019-04-06T09:34:33.594Z,26.04
2019-04-06T09:35:33.660Z,26.27
2019-04-06T09:36:33.569Z,26.39
2019-04-06T09:37:33.574Z,26.52
2019-04-06T09:38:33.566Z,26.41
2019-04-06T09:39:33.539Z,26.19
2019-04-06T09:40:33.526Z,25.92
2019-04-06T09:41:33.532Z,26.05
2019-04-06T09:42:33.520Z,26.20
2019-04-06T09:43:33.505Z,26.08
2019-04-06T09:44:33.501Z,26.20
2019-04-06T09:45:33.479Z,26.38
2019-04-06T09:46:33.466Z,26.33
2019-04-06T09:47:33.471Z,26.36
2019-04-06T09:48:33.663Z,26.16
2019-04-06T09:49:33.555Z,26.03
2019-04-06T09:50:33.429Z,25.85
2019-04-06T09:51:33.433Z,25.90
2019-04-06T09:52:33.420Z,25.96
2019-04-06T09:53:33.707Z,26.31
2019-04-06T09:54:33.431Z,26.49
2019-04-06T09:55:33.385Z,26.39
2019-04-06T09:56:33.593Z,26.73
2019-04-06T09:57:33.445Z,26.64
2019-04-06T09:58:33.347Z,26.58
2019-04-06T09:59:35.848Z,26.73
2019-04-06T10:00:33.316Z,26.52
2019-04-06T10:01:38.962Z,26.26
2019-04-06T10:02:34.649Z,25.86
2019-04-06T10:03:33.281Z,25.78
2019-04-06T10:04:33.348Z,25.81
2019-04-06T10:05:33.267Z,26.04
2019-04-06T10:06:33.249Z,26.24
2019-04-06T10:07:33.366Z,26.03
2019-04-06T10:08:33.251Z,26.16
2019-04-06T10:09:33.221Z,25.95
2019-04-06T10:10:33.211Z,25.88
2019-04-06T10:11:33.413Z,25.92
2019-04-06T10:12:33.315Z,25.86
2019-04-06T10:13:33.258Z,25.89
2019-04-06T10:14:33.193Z,26.31
2019-04-06T10:15:33.165Z,26.52
2019-04-06T10:16:33.159Z,26.82
2019-04-06T10:17:33.133Z,27.00
2019-04-06T10:18:33.168Z,27.31
2019-04-06T10:19:33.395Z,27.35
2019-04-06T10:20:33.121Z,27.49
2019-04-06T10:21:33.090Z,27.13
2019-04-06T10:22:33.160Z,27.20
2019-04-06T10:23:33.391Z,26.82
2019-04-06T10:24:33.061Z,26.53
2019-04-06T10:25:33.220Z,26.19
2019-04-06T10:26:33.037Z,26.27
2019-04-06T10:27:33.102Z,26.58
2019-04-06T10:28:33.249Z,26.48
2019-04-06T10:29:33.062Z,26.60
2019-04-06T10:30:33.007Z,26.31
2019-04-06T10:31:32.985Z,25.82
2019-04-06T10:32:32.986Z,25.51
2019-04-06T10:33:32.982Z,25.59
2019-04-06T10:34:32.956Z,25.93
2019-04-06T10:35:33.231Z,26.01
2019-04-06T10:36:32.936Z,26.03
2019-04-06T10:37:32.936Z,26.41
2019-04-06T10:38:32.956Z,26.31
2019-04-06T10:39:32.948Z,26.63
2019-04-06T10:40:32.898Z,26.58
2019-04-06T10:41:32.886Z,27.05
2019-04-06T10:42:32.872Z,27.22
2019-04-06T10:43:32.876Z,26.89
2019-04-06T10:44:32.860Z,27.10
2019-04-06T10:45:32.841Z,27.50
2019-04-06T10:46:32.840Z,27.91
2019-04-06T10:47:32.849Z,27.87
2019-04-06T10:48:32.886Z,27.87
2019-04-06T10:49:32.816Z,27.69
2019-04-06T10:50:32.948Z,27.73
2019-04-06T10:51:32.780Z,27.64
2019-04-06T10:52:32.800Z,27.69
2019-04-06T10:53:32.816Z,27.72
2019-04-06T10:54:32.747Z,27.31
2019-04-06T10:55:32.818Z,27.08
2019-04-06T10:56:32.729Z,26.79
2019-04-06T10:57:32.733Z,27.13
2019-04-06T10:58:32.751Z,27.45
2019-04-06T10:59:32.914Z,27.68
2019-04-06T11:00:32.684Z,27.64
2019-04-06T11:01:32.680Z,27.35
2019-04-06T11:02:32.671Z,27.22
2019-04-06T11:03:32.676Z,26.94
2019-04-06T11:04:32.799Z,27.04
2019-04-06T11:05:32.646Z,26.88
2019-04-06T11:06:32.622Z,26.52
2019-04-06T11:07:32.614Z,26.53
2019-04-06T11:08:32.631Z,26.73
2019-04-06T11:09:32.637Z,26.97
2019-04-06T11:10:32.589Z,26.85
2019-04-06T11:11:32.576Z,27.13
2019-04-06T11:12:32.557Z,27.49
2019-04-06T11:13:32.567Z,27.60
2019-04-06T11:14:32.533Z,27.64
2019-04-06T11:15:32.598Z,28.13
2019-04-06T11:16:32.521Z,28.28
2019-04-06T11:17:32.513Z,28.65
2019-04-06T11:18:32.531Z,28.66
2019-04-06T11:19:32.573Z,28.24
2019-04-06T11:20:32.473Z,28.12
2019-04-06T11:21:32.478Z,28.37
2019-04-06T11:22:32.463Z,28.68
2019-04-06T11:23:32.470Z,29.06
2019-04-06T11:24:32.766Z,29.29
2019-04-06T11:25:32.433Z,29.46
2019-04-06T11:26:32.415Z,29.80
2019-04-06T11:27:32.408Z,30.10
2019-04-06T11:28:32.429Z,30.52
2019-04-06T11:29:32.393Z,30.73
2019-04-06T11:30:32.678Z,31.24
2019-04-06T11:31:32.370Z,30.75
2019-04-06T11:32:32.366Z,30.55
2019-04-06T11:33:32.371Z,30.02
2019-04-06T11:34:32.337Z,30.28
2019-04-06T11:35:32.404Z,29.99
2019-04-06T11:36:32.314Z,30.29
2019-04-06T11:37:32.306Z,30.80
2019-04-06T11:38:32.320Z,31.22
2019-04-06T11:39:32.439Z,31.44
2019-04-06T11:40:32.295Z,31.37
2019-04-06T11:41:32.308Z,31.12
2019-04-06T11:42:32.515Z,30.55
2019-04-06T11:43:32.274Z,30.36
2019-04-06T11:44:32.398Z,30.53
2019-04-06T11:45:32.420Z,30.32
2019-04-06T11:46:32.355Z,30.20
2019-04-06T11:47:32.213Z,29.91
2019-04-06T11:48:32.214Z,30.30
2019-04-06T11:49:32.201Z,30.17
2019-04-06T11:50:32.182Z,30.21
2019-04-06T11:51:32.172Z,30.22
2019-04-06T11:52:32.158Z,30.24
2019-04-06T11:53:32.155Z,30.20
2019-04-06T11:54:32.135Z,30.26
2019-04-06T11:55:32.132Z,30.58
2019-04-06T11:56:32.107Z,30.74
2019-04-06T11:57:32.104Z,31.02
2019-04-06T11:58:32.396Z,30.89
2019-04-06T11:59:32.102Z,30.89
2019-04-06T12:00:32.074Z,30.67
2019-04-06T12:01:32.064Z,31.08
2019-04-06T12:02:32.295Z,31.11
2019-04-06T12:03:32.055Z,31.19
2019-04-06T12:04:32.054Z,30.64
2019-04-06T12:05:32.023Z,30.75
2019-04-06T12:06:32.080Z,30.48
2019-04-06T12:07:32.006Z,30.56
2019-04-06T12:08:32.019Z,30.82
2019-04-06T12:09:31.980Z,31.14
2019-04-06T12:10:32.037Z,31.29
2019-04-06T12:11:31.968Z,31.37
2019-04-06T12:12:31.970Z,31.41
2019-04-06T12:13:32.093Z,31.39
2019-04-06T12:14:31.934Z,31.19
2019-04-06T12:15:31.924Z,30.77
2019-04-06T12:16:32.199Z,31.30
2019-04-06T12:17:31.961Z,31.54
2019-04-06T12:18:31.986Z,31.99
2019-04-06T12:19:31.894Z,32.14
2019-04-06T12:20:31.868Z,32.35
2019-04-06T12:21:31.971Z,32.41
2019-04-06T12:22:31.849Z,32.63
2019-04-06T12:23:33.410Z,32.97
2019-04-06T12:24:31.832Z,32.72
2019-04-06T12:25:31.822Z,32.55
2019-04-06T12:26:31.864Z,32.68
2019-04-06T12:27:31.806Z,32.42
2019-04-06T12:28:32.472Z,32.21
2019-04-06T12:29:31.784Z,32.23
2019-04-06T12:30:38.464Z,32.21
2019-04-06T12:31:32.781Z,32.57
2019-04-06T12:32:31.774Z,32.43
2019-04-06T12:33:31.763Z,32.16
2019-04-06T12:34:31.727Z,32.39
2019-04-06T12:35:31.724Z,31.81
2019-04-06T12:36:31.708Z,31.30
2019-04-06T12:37:31.713Z,30.80
2019-04-06T12:38:31.715Z,30.80
2019-04-06T12:39:31.683Z,30.74
2019-04-06T12:40:31.675Z,31.22
2019-04-06T12:41:31.749Z,31.51
2019-04-06T12:42:31.671Z,31.86
2019-04-06T12:43:32.035Z,32.35
2019-04-06T12:44:31.633Z,32.80
2019-04-06T12:45:31.623Z,32.60
2019-04-06T12:46:31.608Z,32.51
2019-04-06T12:47:31.746Z,32.41
2019-04-06T12:48:31.655Z,31.81
2019-04-06T12:49:31.587Z,31.81
2019-04-06T12:50:31.626Z,31.95
2019-04-06T12:51:31.798Z,31.56
2019-04-06T12:52:31.548Z,31.63
2019-04-06T12:53:31.768Z,31.67
2019-04-06T12:54:31.672Z,31.76
2019-04-06T12:55:31.515Z,31.68
2019-04-06T12:56:31.510Z,31.29
2019-04-06T12:57:31.496Z,30.85
2019-04-06T12:58:31.530Z,30.80
2019-04-06T12:59:31.476Z,30.78
2019-04-06T13:00:31.475Z,31.11
2019-04-06T13:01:31.469Z,31.27
2019-04-06T13:02:31.449Z,31.27
2019-04-06T13:03:31.453Z,30.59